Time;durP1;ratioP1;P1;durP2;ratioP2;P2;SDS_P1;SDS_P2;PMS_P1;PMS_P2;Temp;Humidity;BMP_temperature;BMP_pressure;BME280_temperature;BME280_humidity;BME280_pressure;Samples;Min_cycle;Max_cycle;Signal;HPM_P1;HPM_P2
2021/12/29 00:01:56;;;;;;;25.65;9.25;;;;;;;5.91;100.00;99644.66;4948771;29;20446;-78
2021/12/29 00:04:24;;;;;;;24.17;8.20;;;;;;;5.88;100.00;99631.00;4949111;29;20027;-78
2021/12/29 00:07:00;;;;;;;21.15;7.20;;;;;;;6.51;100.00;99731.25;4934438;29;20038;-78
2021/12/29 00:09:26;;;;;;;20.13;7.32;;;;;;;5.75;100.00;99616.34;4935813;29;20055;-78
2021/12/29 00:11:55;;;;;;;21.52;7.13;;;;;;;6.48;100.00;99749.91;4947214;29;20031;-78
2021/12/29 00:14:21;;;;;;;19.20;6.88;;;;;;;6.43;100.00;99750.31;4932145;29;20043;-79
2021/12/29 00:16:50;;;;;;;24.33;7.85;;;;;;;6.12;100.00;99719.81;4946641;29;20055;-78
2021/12/29 00:19:15;;;;;;;33.13;9.85;;;;;;;6.02;100.00;99696.19;4938243;29;20032;-78
2021/12/29 00:21:41;;;;;;;25.67;10.00;;;;;;;6.56;100.00;99781.53;4935682;29;20035;-79
2021/12/29 00:24:10;;;;;;;23.00;10.85;;;;;;;5.67;100.00;99658.06;4945919;29;20031;-80
2021/12/29 00:26:36;;;;;;;30.15;12.27;;;;;;;6.34;100.00;99750.28;4943961;28;20031;-78
2021/12/29 00:29:02;;;;;;;37.78;14.23;;;;;;;6.01;100.00;99678.78;4943152;29;20393;-77
2021/12/29 00:31:30;;;;;;;44.25;14.88;;;;;;;6.01;100.00;99702.38;4941855;29;20517;-78
2021/12/29 00:33:56;;;;;;;40.70;14.75;;;;;;;6.55;100.00;99797.41;4928689;29;20027;-77
2021/12/29 00:36:23;;;;;;;45.17;14.60;;;;;;;6.53;100.00;99796.72;4941910;29;20034;-78
2021/12/29 00:38:50;;;;;;;42.08;14.18;;;;;;;5.91;100.00;99707.56;4923078;29;20043;-78
2021/12/29 00:41:17;;;;;;;36.65;12.85;;;;;;;6.60;100.00;99813.59;4907343;29;20052;-78
2021/12/29 00:43:44;;;;;;;36.00;12.77;;;;;;;5.64;100.00;99674.88;4910542;29;20499;-78
2021/12/29 00:46:12;;;;;;;31.48;14.38;;;;;;;5.69;100.00;99684.94;4889296;29;20154;-78
2021/12/29 00:48:44;;;;;;;39.70;14.27;;;;;;;6.03;100.00;99748.47;4894233;29;20127;-79
2021/12/29 00:51:11;;;;;;;37.35;13.43;;;;;;;6.07;100.00;99736.75;4895820;29;20067;-77
2021/12/29 00:53:39;;;;;;;42.65;14.88;;;;;;;6.50;100.00;99828.47;4900804;29;20099;-78
2021/12/29 00:56:26;;;;;;;34.63;15.27;;;;;;;6.63;100.00;99829.91;4895073;29;20123;-78
2021/12/29 00:58:52;;;;;;;40.65;17.02;;;;;;;6.05;100.00;99756.19;4897636;29;20051;-78
2021/12/29 01:01:26;;;;;;;38.63;15.15;;;;;;;6.01;100.00;99760.03;4895553;29;20188;-79
2021/12/29 01:03:53;;;;;;;32.40;12.82;;;;;;;6.10;100.00;99790.72;4911551;29;20519;-79
2021/12/29 01:06:19;;;;;;;29.70;13.63;;;;;;;6.44;100.00;99845.53;4893349;29;20072;-78
2021/12/29 01:08:45;;;;;;;35.42;13.25;;;;;;;6.13;100.00;99816.69;4894255;29;20064;-77
2021/12/29 01:11:11;;;;;;;34.00;14.15;;;;;;;6.09;100.00;99843.25;4924290;29;20475;-78
2021/12/29 01:13:44;;;;;;;34.95;13.93;;;;;;;6.13;100.00;99835.03;4907249;29;20032;-79
2021/12/29 01:16:36;;;;;;;35.40;15.43;;;;;;;6.19;100.00;99844.16;4906960;29;20033;-78
2021/12/29 01:19:14;;;;;;;44.28;16.85;;;;;;;6.52;100.00;99902.56;4905918;29;20095;-78
2021/12/29 01:21:45;;;;;;;52.40;18.38;;;;;;;6.48;100.00;99902.00;4905925;29;20168;-78
2021/12/29 01:24:12;;;;;;;49.00;17.90;;;;;;;6.55;100.00;99910.19;4922590;29;20024;-78
2021/12/29 01:26:48;;;;;;;41.85;17.00;;;;;;;6.18;100.00;99839.88;4906350;29;20390;-78
2021/12/29 01:29:14;;;;;;;45.97;18.70;;;;;;;6.38;100.00;99869.66;4925239;29;20028;-77
2021/12/29 01:31:42;;;;;;;47.85;17.10;;;;;;;6.12;100.00;99828.09;4923978;29;20080;-78
2021/12/29 01:34:08;;;;;;;48.22;18.55;;;;;;;6.64;100.00;99899.75;4923010;29;20050;-78
2021/12/29 01:36:36;;;;;;;47.10;17.73;;;;;;;6.69;100.00;99908.06;4921733;29;20024;-78
2021/12/29 01:39:06;;;;;;;45.80;17.48;;;;;;;6.32;100.00;99863.13;4909248;29;20032;-78
2021/12/29 01:41:32;;;;;;;46.65;17.33;;;;;;;5.50;100.00;99760.78;4908792;29;20044;-78
2021/12/29 01:44:00;;;;;;;45.42;16.38;;;;;;;6.60;100.00;99923.75;4911517;29;20043;-78
2021/12/29 01:46:26;;;;;;;40.78;15.65;;;;;;;6.04;100.00;99830.53;4929720;29;20059;-79
2021/12/29 01:49:00;;;;;;;48.83;15.65;;;;;;;6.63;100.00;99934.84;4937662;29;20096;-78
2021/12/29 01:51:30;;;;;;;38.00;13.80;;;;;;;6.62;100.00;99934.94;4948324;29;20032;-78
2021/12/29 01:54:14;;;;;;;38.83;13.18;;;;;;;6.22;100.00;99877.97;4942476;29;20036;-78
2021/12/29 01:56:45;;;;;;;31.52;11.88;;;;;;;6.39;100.00;99921.97;4932521;29;20040;-78
2021/12/29 01:59:15;;;;;;;30.30;10.93;;;;;;;6.67;100.00;99945.88;4940554;29;20503;-78
2021/12/29 02:01:41;;;;;;;25.90;10.68;;;;;;;5.75;100.00;99817.22;4926620;29;20028;-78
2021/12/29 02:04:07;;;;;;;26.17;10.30;;;;;;;6.32;100.00;99920.81;4947495;29;20108;-78
2021/12/29 02:06:34;;;;;;;30.85;10.82;;;;;;;6.63;100.00;99954.97;4946457;29;20039;-78
2021/12/29 02:09:00;;;;;;;29.98;12.52;;;;;;;6.68;100.00;99963.31;4948645;29;20382;-79
2021/12/29 02:11:42;;;;;;;33.15;11.70;;;;;;;6.79;100.00;99960.59;4945034;29;20023;-79
2021/12/29 02:14:09;;;;;;;32.30;12.25;;;;;;;6.19;100.00;99863.31;4940810;29;20035;-78
2021/12/29 02:16:36;;;;;;;26.02;11.23;;;;;;;6.75;100.00;99971.50;4941805;29;20032;-78
2021/12/29 02:19:08;;;;;;;37.75;12.85;;;;;;;6.79;100.00;99976.34;4924893;29;20048;-79
2021/12/29 02:21:34;;;;;;;36.28;12.25;;;;;;;6.54;100.00;99917.25;4942090;29;20020;-79
2021/12/29 02:26:32;;;;;;;31.85;10.40;;;;;;;6.72;100.00;99935.81;4940968;29;20183;-79
2021/12/29 02:29:06;;;;;;;26.02;9.98;;;;;;;6.73;100.00;99953.25;4941981;29;20024;-79
2021/12/29 02:31:36;;;;;;;28.40;9.40;;;;;;;6.03;100.00;99853.28;4925849;29;20107;-77
2021/12/29 02:34:01;;;;;;;28.05;10.23;;;;;;;7.05;100.00;99968.88;4939672;29;20371;-78
2021/12/29 02:36:27;;;;;;;24.10;9.48;;;;;;;6.51;100.00;99880.75;4940043;29;20020;-78
2021/12/29 02:38:55;;;;;;;25.45;9.38;;;;;;;6.89;100.00;99935.22;4923723;29;20036;-79
2021/12/29 02:41:24;;;;;;;21.83;8.85;;;;;;;7.05;100.00;99958.38;4925260;29;20019;-79
2021/12/29 02:43:58;;;;;;;22.65;7.10;;;;;;;6.28;100.00;99880.91;4939511;29;20059;-78
2021/12/29 02:46:26;;;;;;;26.20;7.28;;;;;;;6.77;100.00;99945.94;4941166;29;20063;-78
2021/12/29 02:49:02;;;;;;;24.08;7.00;;;;;;;6.93;100.00;99971.69;4925547;29;20031;-79
2021/12/29 02:51:31;;;;;;;26.57;8.83;;;;;;;6.08;100.00;99837.19;4926773;29;20046;-78
2021/12/29 02:53:57;;;;;;;21.83;8.07;;;;;;;6.51;100.00;99929.78;4940237;29;20032;-78
2021/12/29 02:56:25;;;;;;;23.25;8.63;;;;;;;6.47;100.00;99909.06;4940488;29;20082;-78
2021/12/29 02:58:55;;;;;;;26.02;9.30;;;;;;;6.87;100.00;99994.06;4910612;29;20494;-79
2021/12/29 03:01:24;;;;;;;21.58;7.53;;;;;;;6.55;100.00;99952.16;4941698;29;20032;-79
2021/12/29 03:03:51;;;;;;;25.63;7.82;;;;;;;6.97;100.00;99968.72;4946533;29;20024;-79
2021/12/29 03:06:16;;;;;;;24.20;7.18;;;;;;;6.69;100.00;99942.16;4949866;29;20767;-79
2021/12/29 03:08:42;;;;;;;23.52;6.13;;;;;;;7.14;100.00;99990.06;4931741;29;20035;-78
2021/12/29 03:11:08;;;;;;;18.38;5.55;;;;;;;7.11;100.00;100014.78;4944633;29;20024;-79
2021/12/29 03:13:37;;;;;;;16.00;5.20;;;;;;;6.38;100.00;99936.06;4947843;29;20047;-79
2021/12/29 03:16:16;;;;;;;19.48;4.70;;;;;;;6.87;100.00;100026.38;4956086;29;20024;-78
2021/12/29 03:18:42;;;;;;;18.05;4.68;;;;;;;7.06;100.00;100032.69;4934954;29;20062;-78
2021/12/29 03:21:11;;;;;;;19.30;4.90;;;;;;;6.44;100.00;99966.16;4950141;29;20024;-79
2021/12/29 03:23:39;;;;;;;19.52;5.22;;;;;;;6.96;100.00;100048.41;4945872;29;20140;-78
2021/12/29 03:26:09;;;;;;;18.90;4.60;;;;;;;6.98;100.00;100064.88;4947616;29;20024;-78
2021/12/29 03:28:37;;;;;;;22.70;5.45;;;;;;;6.99;100.00;100047.31;4928718;29;20044;-79
2021/12/29 03:31:04;;;;;;;24.45;5.18;;;;;;;6.09;100.00;99974.28;4931486;29;20034;-79
2021/12/29 03:33:30;;;;;;;27.13;5.00;;;;;;;7.11;100.00;100075.19;4947517;29;20044;-79
2021/12/29 03:36:02;;;;;;;23.50;5.10;;;;;;;6.22;100.00;99941.75;4933563;29;20561;-79
2021/12/29 03:38:30;;;;;;;24.58;5.20;;;;;;;6.47;100.00;99995.63;4946658;29;20042;-78
2021/12/29 03:40:59;;;;;;;20.92;4.82;;;;;;;6.28;100.00;99985.78;4928476;29;20048;-78
2021/12/29 03:43:28;;;;;;;19.98;4.65;;;;;;;6.36;100.00;99993.03;4945928;29;20038;-78
2021/12/29 03:45:55;;;;;;;17.15;4.53;;;;;;;6.27;100.00;99980.69;4968257;29;20032;-79
2021/12/29 03:48:24;;;;;;;15.65;4.68;;;;;;;6.30;100.00;99990.91;4946179;29;20039;-79
2021/12/29 03:50:49;;;;;;;21.20;4.10;;;;;;;6.67;100.00;100035.09;4946535;29;20038;-79
2021/12/29 03:53:16;;;;;;;18.75;4.32;;;;;;;7.01;100.00;100101.34;4963857;29;20028;-79
2021/12/29 03:55:43;;;;;;;18.58;4.78;;;;;;;6.93;100.00;100110.81;4963728;29;20035;-77
2021/12/29 03:58:09;;;;;;;17.27;3.90;;;;;;;7.01;100.00;100111.84;4929746;29;20031;-79
2021/12/29 04:00:36;;;;;;;21.70;4.00;;;;;;;6.54;100.00;100037.06;4928983;29;20027;-78
2021/12/29 04:03:03;;;;;;;20.00;4.20;;;;;;;6.80;100.00;100069.03;4945916;29;20110;-78
2021/12/29 04:05:29;;;;;;;19.17;4.10;;;;;;;6.67;100.00;100054.28;4928230;29;20027;-78
2021/12/29 04:07:56;;;;;;;13.95;4.55;;;;;;;7.01;100.00;100095.28;4912389;29;20039;-78
2021/12/29 04:10:24;;;;;;;21.63;3.92;;;;;;;7.06;100.00;100106.22;4929736;29;20039;-80
2021/12/29 04:12:49;;;;;;;16.48;4.15;;;;;;;6.62;100.00;100048.59;4945665;28;20034;-79
2021/12/29 04:15:17;;;;;;;15.23;3.55;;;;;;;7.03;100.00;100091.56;4961369;28;20031;-79
2021/12/29 04:17:51;;;;;;;14.10;3.90;;;;;;;6.53;100.00;100030.97;4964626;29;20034;-79
2021/12/29 04:23:08;;;;;;;12.25;3.30;;;;;;;7.20;100.00;100105.91;4971286;29;19915;-79
2021/12/29 04:25:37;;;;;;;14.38;3.72;;;;;;;7.21;100.00;100112.81;4969097;29;20027;-78
2021/12/29 04:28:08;;;;;;;18.27;3.88;;;;;;;7.05;100.00;100105.38;4913862;29;20065;-79
2021/12/29 04:30:36;;;;;;;17.23;4.07;;;;;;;7.02;100.00;100102.19;4941735;29;20023;-79
2021/12/29 04:33:04;;;;;;;15.88;3.05;;;;;;;6.88;100.00;100126.94;4943211;29;20034;-78
2021/12/29 04:35:30;;;;;;;11.02;3.00;;;;;;;6.85;100.00;100149.03;4929995;29;20035;-79
2021/12/29 04:37:56;;;;;;;13.77;3.30;;;;;;;6.13;100.00;100021.13;4945581;29;20059;-78
2021/12/29 04:40:22;;;;;;;14.63;3.25;;;;;;;6.87;100.00;100152.34;4961950;29;20027;-79
2021/12/29 04:42:48;;;;;;;15.48;3.10;;;;;;;6.41;100.00;100055.59;4968557;29;20023;-79
2021/12/29 04:45:16;;;;;;;11.77;3.15;;;;;;;6.36;100.00;100065.59;4963510;29;20097;-79
2021/12/29 04:47:46;;;;;;;12.85;3.03;;;;;;;7.10;100.00;100162.75;4965721;29;20102;-79
2021/12/29 04:50:28;;;;;;;10.98;3.05;;;;;;;6.69;100.00;100089.09;4947478;29;20055;-80
2021/12/29 04:53:00;;;;;;;9.73;3.00;;;;;;;6.99;100.00;100161.00;4947314;29;20380;-78
2021/12/29 04:55:29;;;;;;;10.93;3.10;;;;;;;7.02;100.00;100171.28;4932031;29;20090;-79
2021/12/29 04:58:12;;;;;;;13.40;3.60;;;;;;;6.63;100.00;100118.47;4945979;29;20050;-79
2021/12/29 05:00:38;;;;;;;10.98;3.03;;;;;;;6.89;100.00;100165.38;4930239;29;20035;-79
2021/12/29 05:03:05;;;;;;;14.55;3.22;;;;;;;6.88;100.00;100161.06;4947708;29;20382;-80
2021/12/29 05:10:42;;;;;;;19.10;3.40;;;;;;;6.87;100.00;100154.97;4965030;29;20038;-78
2021/12/29 05:13:09;;;;;;;18.73;3.03;;;;;;;6.77;100.00;100161.09;4961654;29;20031;-81
2021/12/29 05:15:38;;;;;;;27.10;2.88;;;;;;;6.72;100.00;100181.63;4952391;29;20082;-78
2021/12/29 05:18:06;;;;;;;33.35;3.95;;;;;;;6.61;100.00;100166.78;4935426;29;20094;-79
2021/12/29 05:20:32;;;;;;;21.30;2.78;;;;;;;6.34;100.00;100104.25;4944292;29;20203;-79
2021/12/29 05:22:59;;;;;;;21.55;3.53;;;;;;;6.76;100.00;100162.91;4943618;29;20035;-79
2021/12/29 05:25:26;;;;;;;22.80;3.00;;;;;;;6.69;100.00;100157.31;4943162;29;20406;-79
2021/12/29 05:27:53;;;;;;;28.50;3.50;;;;;;;6.90;100.00;100196.75;4948756;29;20035;-79
2021/12/29 05:30:19;;;;;;;23.73;3.78;;;;;;;6.62;100.00;100143.03;4947383;29;20053;-80
2021/12/29 05:32:46;;;;;;;29.92;3.25;;;;;;;6.45;100.00;100140.94;4964028;29;20050;-78
2021/12/29 05:35:14;;;;;;;19.88;3.15;;;;;;;6.41;100.00;100152.63;4964438;29;20023;-78
2021/12/29 05:37:42;;;;;;;25.45;3.60;;;;;;;6.26;100.00;100128.47;4946745;29;20039;-79
2021/12/29 05:40:08;;;;;;;20.17;3.08;;;;;;;6.36;100.00;100152.16;4949688;29;20106;-78
2021/12/29 05:42:34;;;;;;;31.35;3.55;;;;;;;6.67;100.00;100210.88;4949455;29;20020;-79
2021/12/29 05:45:05;;;;;;;29.17;3.90;;;;;;;6.91;100.00;100208.06;4950378;29;20044;-79
2021/12/29 05:47:31;;;;;;;32.58;3.53;;;;;;;6.48;100.00;100152.00;4946942;29;20086;-78
2021/12/29 05:49:58;;;;;;;25.52;3.50;;;;;;;6.17;100.00;100116.91;4969177;29;20035;-79
2021/12/29 05:52:23;;;;;;;19.75;3.10;;;;;;;5.89;100.00;100059.75;4965938;29;20035;-79
2021/12/29 05:54:49;;;;;;;31.88;4.30;;;;;;;6.85;100.00;100206.75;4948911;29;20058;-79
2021/12/29 05:57:15;;;;;;;30.25;4.32;;;;;;;6.67;100.00;100164.47;4927348;29;20031;-78
2021/12/29 05:59:41;;;;;;;24.85;3.47;;;;;;;6.75;100.00;100173.53;4943577;29;20426;-77
2021/12/29 06:02:06;;;;;;;30.08;3.60;;;;;;;6.67;100.00;100189.88;4942933;29;20490;-79
2021/12/29 06:04:34;;;;;;;19.73;3.00;;;;;;;6.62;100.00;100190.25;4961871;29;20090;-78
2021/12/29 06:07:01;;;;;;;23.98;3.35;;;;;;;6.98;100.00;100222.38;4945164;29;20449;-79
2021/12/29 06:09:27;;;;;;;26.05;3.50;;;;;;;6.84;100.00;100233.97;4967411;29;20034;-78
2021/12/29 06:12:35;;;;;;;18.30;2.90;;;;;;;6.77;100.00;100219.69;4967590;29;20027;-78
2021/12/29 06:15:02;;;;;;;17.70;2.80;;;;;;;6.64;100.00;100224.25;4962977;29;20034;-78
2021/12/29 06:17:28;;;;;;;26.17;3.58;;;;;;;6.57;100.00;100187.16;4952571;29;20039;-82
2021/12/29 06:19:56;;;;;;;22.55;3.88;;;;;;;7.01;100.00;100253.59;4938250;29;20045;-79
2021/12/29 06:22:23;;;;;;;20.67;3.47;;;;;;;6.60;100.00;100180.84;4950861;29;20126;-80
2021/12/29 06:24:52;;;;;;;28.70;4.03;;;;;;;6.13;100.00;100122.50;4933664;29;20478;-80
2021/12/29 06:27:31;;;;;;;23.50;3.78;;;;;;;6.85;100.00;100232.19;4949171;29;20029;-78
2021/12/29 06:29:57;;;;;;;26.67;3.45;;;;;;;6.00;100.00;100083.34;4929931;29;20095;-79
2021/12/29 06:32:26;;;;;;;26.63;3.40;;;;;;;6.63;100.00;100160.44;4950036;29;20038;-79
2021/12/29 06:34:55;;;;;;;22.23;4.15;;;;;;;6.74;100.00;100174.47;4933814;29;20023;-82
2021/12/29 06:37:23;;;;;;;20.60;3.42;;;;;;;6.88;100.00;100231.91;4931776;29;20027;-79
2021/12/29 06:39:49;;;;;;;22.48;4.07;;;;;;;6.62;100.00;100202.53;4923368;29;20027;-81
2021/12/29 06:42:26;;;;;;;27.52;3.83;;;;;;;7.13;100.00;100237.81;4959415;29;20035;-79
2021/12/29 06:44:52;;;;;;;14.93;3.50;;;;;;;6.71;100.00;100178.19;4940347;29;20047;-80
2021/12/29 06:47:18;;;;;;;24.95;3.38;;;;;;;7.06;100.00;100240.09;4939714;29;20094;-80
2021/12/29 06:49:44;;;;;;;21.05;3.30;;;;;;;6.64;100.00;100188.34;4974125;28;20058;-82
2021/12/29 06:52:10;;;;;;;24.60;3.50;;;;;;;6.87;100.00;100241.59;4941955;29;20031;-82
2021/12/29 06:54:38;;;;;;;23.08;3.83;;;;;;;7.03;100.00;100264.81;4942173;29;20055;-81
2021/12/29 06:57:13;;;;;;;18.58;3.70;;;;;;;7.14;100.00;100269.22;4942109;29;20030;-83
2021/12/29 06:59:42;;;;;;;25.30;3.72;;;;;;;6.62;100.00;100247.13;4941494;29;20050;-82
2021/12/29 07:02:09;;;;;;;24.42;4.07;;;;;;;6.90;100.00;100207.25;4969347;29;20075;-82
2021/12/29 07:04:37;;;;;;;24.67;4.50;;;;;;;6.85;100.00;100259.25;4951498;29;20016;-83
2021/12/29 07:07:03;;;;;;;28.42;4.38;;;;;;;5.91;100.00;100131.22;4950543;29;20511;-82
2021/12/29 07:09:28;;;;;;;21.90;3.88;;;;;;;6.52;100.00;100206.84;4948782;29;20031;-82
2021/12/29 07:11:54;;;;;;;21.35;3.90;;;;;;;6.95;100.00;100272.50;4967139;29;20027;-83
2021/12/29 07:14:21;;;;;;;24.40;3.85;;;;;;;6.06;100.00;100183.31;4948597;29;20385;-81
2021/12/29 07:16:49;;;;;;;21.63;3.80;;;;;;;6.69;100.00;100304.25;4970329;29;20031;-82
2021/12/29 07:19:17;;;;;;;18.23;3.65;;;;;;;6.24;100.00;100225.56;4965744;29;20035;-82
2021/12/29 07:21:47;;;;;;;22.98;3.85;;;;;;;6.55;100.00;100293.19;4955580;29;20023;-82
2021/12/29 07:26:48;;;;;;;18.35;3.30;;;;;;;6.15;100.00;100239.41;5010848;23;20074;-81
2021/12/29 07:29:15;;;;;;;22.10;4.25;;;;;;;6.50;100.00;100275.19;4936162;28;20077;-78
2021/12/29 07:31:41;;;;;;;20.67;3.80;;;;;;;6.61;100.00;100304.03;4965640;28;20473;-79
2021/12/29 07:34:09;;;;;;;19.10;3.67;;;;;;;6.34;100.00;100249.31;4950098;28;20049;-78
2021/12/29 07:36:39;;;;;;;22.55;4.03;;;;;;;6.73;100.00;100304.03;4968300;28;20030;-77
2021/12/29 07:39:09;;;;;;;19.20;3.63;;;;;;;6.48;100.00;100313.81;4964721;28;20126;-78
2021/12/29 07:41:40;;;;;;;19.60;3.75;;;;;;;6.41;100.00;100312.63;4966647;28;20058;-79
2021/12/29 07:44:08;;;;;;;19.25;3.30;;;;;;;5.93;100.00;100253.31;4946041;28;20046;-79
2021/12/29 07:46:41;;;;;;;21.15;3.75;;;;;;;6.40;100.00;100310.94;4963016;28;20030;-77
2021/12/29 07:49:07;;;;;;;18.52;3.75;;;;;;;6.26;100.00;100273.50;4959974;28;20031;-77
2021/12/29 07:51:34;;;;;;;19.13;3.95;;;;;;;6.62;100.00;100318.81;4959672;28;20062;-78
2021/12/29 07:54:00;;;;;;;24.52;3.55;;;;;;;6.48;100.00;100298.91;4977002;28;20039;-78
2021/12/29 07:56:29;;;;;;;20.65;4.68;;;;;;;6.43;100.00;100302.84;4943076;28;20033;-78
2021/12/29 07:58:54;;;;;;;21.45;3.60;;;;;;;6.69;100.00;100309.50;4976829;28;20376;-79
2021/12/29 08:01:28;;;;;;;16.02;4.00;;;;;;;6.46;100.00;100279.00;4911761;29;20020;-79
2021/12/29 08:03:59;;;;;;;13.98;3.50;;;;;;;6.43;100.00;100266.97;4926596;29;20042;-81
2021/12/29 08:06:30;;;;;;;19.50;4.22;;;;;;;6.50;100.00;100266.47;4950840;29;20031;-81
2021/12/29 08:09:07;;;;;;;20.13;3.80;;;;;;;6.68;100.00;100272.91;4954840;29;20016;-79
2021/12/29 08:11:34;;;;;;;16.60;3.55;;;;;;;6.57;100.00;100247.50;4938507;29;20042;-77
2021/12/29 08:14:00;;;;;;;18.05;3.47;;;;;;;6.85;100.00;100287.28;4936374;29;20534;-80
2021/12/29 08:16:26;;;;;;;13.60;3.05;;;;;;;6.48;100.00;100295.44;4927388;29;20063;-78
2021/12/29 08:18:52;;;;;;;17.52;3.17;;;;;;;6.65;100.00;100281.00;4943227;29;20034;-80
2021/12/29 08:21:18;;;;;;;17.27;3.30;;;;;;;6.44;100.00;100294.00;4957001;29;20046;-77
2021/12/29 08:23:54;;;;;;;24.30;4.10;;;;;;;6.62;100.00;100313.56;4946624;29;20529;-81
2021/12/29 08:26:26;;;;;;;16.20;3.50;;;;;;;6.46;100.00;100319.16;4962202;28;20055;-81
2021/12/29 08:28:57;;;;;;;16.15;3.80;;;;;;;6.59;100.00;100300.69;4946661;29;20071;-79
2021/12/29 08:31:23;;;;;;;20.33;4.10;;;;;;;6.52;100.00;100349.34;4947239;29;20035;-81
2021/12/29 08:33:49;;;;;;;18.15;3.97;;;;;;;6.59;100.00;100315.59;4926700;29;20026;-79
2021/12/29 08:36:14;;;;;;;21.55;3.78;;;;;;;6.17;100.00;100274.22;4941223;29;20034;-77
2021/12/29 08:38:44;;;;;;;18.35;5.30;;;;;;;6.39;100.00;100301.41;4955537;29;20102;-80
2021/12/29 08:41:17;;;;;;;17.77;5.00;;;;;;;6.58;100.00;100333.09;4943006;29;20137;-77
2021/12/29 08:43:58;;;;;;;26.10;4.32;;;;;;;6.55;100.00;100316.78;4965069;29;20139;-78
2021/12/29 08:46:26;;;;;;;17.58;3.70;;;;;;;6.69;100.00;100300.78;4940840;29;20027;-78
2021/12/29 08:48:53;;;;;;;14.18;3.53;;;;;;;6.58;100.00;100346.22;4927935;29;20047;-76
2021/12/29 08:51:19;;;;;;;16.45;3.30;;;;;;;6.66;100.00;100333.34;4950735;29;20050;-78
2021/12/29 08:53:57;;;;;;;15.38;3.65;;;;;;;6.50;100.00;100293.53;4953715;29;20042;-79
2021/12/29 08:56:26;;;;;;;18.48;4.13;;;;;;;6.57;100.00;100291.28;4946226;29;20043;-76
2021/12/29 08:58:58;;;;;;;;;;;;;;;6.93;100.00;100313.78;4962600;28;20094;-77
2021/12/29 09:01:25;;;;;;;;;;;;;;;7.01;100.00;100308.72;4927778;29;19966;-79
2021/12/29 09:03:53;;;;;;;;;;;;;;;6.94;100.00;100318.06;4967246;28;19910;-73
2021/12/29 09:06:19;;;;;;;;;;;;;;;6.70;100.00;100302.47;4949759;29;19922;-77
2021/12/29 09:08:45;;;;;;;;;;;;;;;6.81;100.00;100304.22;4942742;29;19914;-73
2021/12/29 09:11:12;;;;;;;;;;;;;;;6.97;100.00;100303.84;4944435;29;19914;-75
2021/12/29 09:13:38;;;;;;;;;;;;;;;6.96;100.00;100316.16;4947610;29;19918;-75
2021/12/29 09:16:05;;;;;;;;;;;;;;;6.70;100.00;100310.34;4963224;29;19926;-73
2021/12/29 09:18:31;;;;;;;;;;;;;;;7.04;100.00;100310.28;4946133;29;19922;-73
2021/12/29 09:21:04;;;;;;;;;;;;;;;6.94;100.00;100312.81;4949854;29;19914;-76
2021/12/29 09:23:29;;;;;;;;;;;;;;;6.76;100.00;100307.22;4969605;29;20099;-77
2021/12/29 09:25:59;;;;;;;;;;;;;;;6.78;100.00;100301.88;4968765;29;19918;-78
2021/12/29 09:28:34;;;;;;;;;;;;;;;7.06;100.00;100287.34;4934176;29;19933;-75
2021/12/29 09:31:00;;;;;;;;;;;;;;;6.86;100.00;100274.06;4942587;29;19929;-78
2021/12/29 09:33:30;;;;;;;;;;;;;;;6.87;100.00;100285.38;4938333;29;19949;-77
2021/12/29 09:36:01;;;;;;;;;;;;;;;7.22;100.00;100300.09;4934561;29;19915;-77
2021/12/29 09:38:42;;;;;;;;;;;;;;;;;;;;;
2021/12/29 09:41:11;;;;;;;;;;;;;;;7.02;100.00;100301.72;4908204;29;19919;-77
2021/12/29 09:43:41;;;;;;;;;;;;;;;6.86;100.00;100317.84;4906257;29;19926;-77
2021/12/29 09:46:17;;;;;;;;;;;;;;;6.75;100.00;100312.63;4905437;29;20262;-77
2021/12/29 09:48:42;;;;;;;;;;;;;;;6.76;100.00;100316.91;4920987;29;19966;-77
2021/12/29 09:51:17;;;;;;;;;;;;;;;6.84;100.00;100302.22;4920757;29;20255;-77
2021/12/29 09:53:44;;;;;;;;;;;;;;;6.98;100.00;100303.75;4868481;29;20418;-76
2021/12/29 09:56:10;;;;;;;;;;;;;;;7.00;100.00;100293.94;4869057;29;20000;-77
2021/12/29 09:58:36;;;;;;;;;;;;;;;7.00;100.00;100293.94;4902472;29;19963;-77
2021/12/29 10:01:04;;;;;;;;;;;;;;;6.95;100.00;100274.25;4889378;29;20474;-77
2021/12/29 10:03:31;;;;;;;;;;;;;;;7.07;100.00;100266.25;4901973;29;19987;-78
2021/12/29 10:05:59;;;;;;;;;;;;;;;7.20;100.00;100260.84;4887361;29;19915;-78
2021/12/29 10:08:30;;;;;;;;;;;;;;;7.53;100.00;100269.53;4900647;29;19935;-77
2021/12/29 10:10:57;;;;;;;;;;;;;;;7.35;100.00;100268.41;4898893;29;19927;-77
2021/12/29 10:13:24;;;;;;;;;;;;;;;7.45;100.00;100262.28;4888584;29;20007;-77
2021/12/29 10:15:54;;;;;;;;;;;;;;;7.35;100.00;100266.63;4887880;29;20385;-76
2021/12/29 10:18:21;;;;;;;;;;;;;;;6.98;100.00;100261.75;4904127;29;19915;-77
2021/12/29 10:20:50;;;;;;;;;;;;;;;6.94;100.00;100252.44;4888003;29;19915;-78
2021/12/29 10:23:17;;;;;;;;;;;;;;;7.03;100.00;100258.75;4904571;29;20267;-77
2021/12/29 10:25:43;;;;;;;;;;;;;;;6.97;100.00;100262.72;4891809;29;20273;-76
2021/12/29 10:28:20;;;;;;;;;;;;;;;7.18;100.00;100261.94;4924588;29;19954;-76
2021/12/29 10:30:53;;;;;;;;;;;;;;;6.98;100.00;100246.00;4907469;29;20382;-77
2021/12/29 10:33:18;;;;;;;;;;;;;;;6.98;100.00;100251.25;4923883;29;19970;-77
2021/12/29 10:35:48;;;;;;;;;;;;;;;7.16;100.00;100251.53;4924044;29;19915;-77
2021/12/29 10:38:22;;;;;;;;;;;;;;;7.18;100.00;100243.56;4908358;29;19919;-77
2021/12/29 10:40:51;;;;;;;;;;;;;;;7.29;100.00;100238.25;4925127;29;19919;-78
2021/12/29 10:43:17;;;;;;;;;;;;;;;7.27;100.00;100241.00;4925427;29;19926;-77
2021/12/29 10:45:44;;;;;;;;;;;;;;;7.67;100.00;100231.59;4926554;29;19938;-77
2021/12/29 10:48:20;;;;;;;;;;;;;;;7.50;100.00;100233.00;4926655;29;19925;-77
2021/12/29 10:51:03;;;;;;;;;;;;;;;7.26;100.00;100247.19;4927885;29;19915;-77
2021/12/29 10:53:40;;;;;;;;;;;;;;;7.18;100.00;100254.88;4913987;29;19915;-79
2021/12/29 10:56:23;;;;;;;;;;;;;;;7.00;100.00;100259.81;4919302;29;19939;-80
2021/12/29 10:59:13;;;;;;;;;;;;;;;7.01;100.00;100264.09;4936783;29;19929;-78
2021/12/29 11:01:44;;;;;;;;;;;;;;;7.05;100.00;100275.22;4916636;29;19950;-78
2021/12/29 11:04:11;;;;;;;;;;;;;;;6.79;100.00;100280.75;4894308;29;19923;-77
2021/12/29 11:07:01;;;;;;;;;;;;;;;6.96;100.00;100274.16;4869823;29;19930;-77
2021/12/29 11:09:34;;;;;;;;;;;;;;;6.97;100.00;100274.97;4871232;29;19915;-78
2021/12/29 11:12:29;;;;;;;;;;;;;;;6.86;100.00;100260.09;4878087;29;19932;-76
2021/12/29 11:15:16;;;;;;;;;;;;;;;6.86;100.00;100258.31;4824858;29;19951;-80
2021/12/29 11:17:45;;;;;;;;;;;;;;;6.73;100.00;100262.03;4809887;29;20028;-79
2021/12/29 11:20:20;;;;;;;;;;;;;;;7.07;100.00;100245.25;4824447;29;19912;-79
2021/12/29 11:22:51;;;;;;;;;;;;;;;7.00;100.00;100245.88;4805625;29;19956;-79
2021/12/29 11:25:27;;;;;;;;;;;;;;;6.88;100.00;100224.91;4802983;29;19921;-75
2021/12/29 11:27:53;;;;;;;;;;;;;;;6.89;100.00;100223.09;4826239;29;20248;-78
2021/12/29 11:30:21;;;;;;;;;;;;;;;7.18;100.00;100220.75;4797537;29;19917;-78
2021/12/29 11:32:48;;;;;;;;;;;;;;;7.05;100.00;100225.31;4813553;29;19921;-78
2021/12/29 11:35:15;;;;;;;;;;;;;;;6.97;100.00;100227.72;4816233;29;19932;-78
2021/12/29 11:37:45;;;;;;;;;;;;;;;7.07;100.00;100226.88;4815966;29;19920;-78
2021/12/29 11:40:12;;;;;;;;;;;;;;;6.82;100.00;100225.38;4868258;29;19930;-79
2021/12/29 11:42:42;;;;;;;;;;;;;;;7.09;100.00;100221.50;4884937;29;19920;-79
2021/12/29 11:45:13;;;;;;;;;;;;;;;7.01;100.00;100208.97;4898291;29;19915;-79
2021/12/29 11:47:39;;;;;;;;;;;;;;;6.66;100.00;100204.78;4922014;29;19915;-76
2021/12/29 11:50:05;;;;;;;;;;;;;;;6.73;100.00;100206.94;4904416;29;19937;-77
2021/12/29 11:52:43;;;;;;;;;;;;;;;6.78;100.00;100208.22;4905939;29;19915;-77
2021/12/29 11:55:13;;;;;;;;;;;;;;;6.73;100.00;100196.44;4921002;29;20034;-78
2021/12/29 11:57:42;;;;;;;;;;;;;;;6.57;100.00;100210.78;4918745;29;20109;-78
2021/12/29 12:00:28;;;;;;;;;;;;;;;6.63;100.00;100210.31;4918825;29;19986;-74
2021/12/29 12:03:05;;;;;;;;;;;;;;;6.82;100.00;100212.28;4925159;29;19919;-79